createdAt,value
2018-11-29T00:00:52.400Z,2.10
2018-11-29T00:05:57.721Z,2.00
2018-11-29T00:11:18.777Z,1.90
2018-11-29T00:16:24.026Z,1.80
2018-11-29T00:21:28.988Z,1.70
2018-11-29T00:26:33.845Z,1.70
2018-11-29T00:31:38.816Z,1.70
2018-11-29T00:36:43.701Z,1.70
2018-11-29T00:41:48.577Z,1.60
2018-11-29T00:46:53.443Z,1.70
2018-11-29T00:51:58.993Z,1.80
2018-11-29T00:57:04.086Z,1.90
2018-11-29T01:02:08.872Z,1.90
2018-11-29T01:07:13.501Z,1.80
2018-11-29T01:12:18.434Z,2.00
2018-11-29T01:17:24.178Z,1.90
2018-11-29T01:22:30.125Z,1.80
2018-11-29T01:27:34.638Z,1.80
2018-11-29T01:32:39.497Z,1.80
2018-11-29T01:37:44.247Z,1.70
2018-11-29T01:42:57.095Z,1.80
2018-11-29T01:48:01.896Z,1.80
2018-11-29T01:53:07.194Z,1.70
2018-11-29T01:58:11.830Z,1.70
2018-11-29T02:03:16.928Z,1.80
2018-11-29T02:08:22.056Z,1.80
2018-11-29T02:13:26.981Z,1.80
2018-11-29T02:18:31.566Z,1.60
2018-11-29T02:23:36.617Z,1.60
2018-11-29T02:28:46.143Z,1.60
2018-11-29T02:33:50.870Z,1.50
2018-11-29T02:38:55.793Z,1.60
2018-11-29T02:44:01.145Z,1.70
2018-11-29T02:49:05.885Z,1.70
2018-11-29T02:54:10.945Z,1.70
2018-11-29T02:59:15.812Z,1.80
2018-11-29T03:04:20.527Z,1.80
2018-11-29T03:09:25.327Z,1.90
2018-11-29T03:14:30.067Z,1.90
2018-11-29T03:19:34.954Z,1.80
2018-11-29T03:24:39.807Z,1.70
2018-11-29T03:29:45.139Z,1.60
2018-11-29T03:34:49.697Z,1.60
2018-11-29T03:39:54.434Z,1.50
2018-11-29T03:45:00.125Z,1.50
2018-11-29T03:50:06.535Z,1.40
2018-11-29T03:55:11.388Z,1.30
2018-11-29T04:00:17.409Z,1.30
2018-11-29T04:05:22.110Z,1.40
2018-11-29T04:10:26.732Z,1.40
2018-11-29T04:15:31.254Z,1.30
2018-11-29T04:20:36.026Z,1.20
2018-11-29T04:25:40.635Z,1.10
2018-11-29T04:30:45.379Z,1.00
2018-11-29T04:35:49.950Z,1.00
2018-11-29T04:40:54.338Z,1.00
2018-11-29T04:46:10.070Z,0.90
2018-11-29T04:51:14.581Z,0.90
2018-11-29T04:56:19.390Z,0.80
2018-11-29T05:01:25.121Z,0.90
2018-11-29T05:06:36.395Z,0.90
2018-11-29T05:11:41.155Z,0.80
2018-11-29T05:16:45.668Z,0.80
2018-11-29T05:21:50.047Z,0.80
2018-11-29T05:26:55.993Z,0.70
2018-11-29T05:32:01.249Z,0.70
2018-11-29T05:37:06.506Z,0.70
2018-11-29T05:42:11.958Z,0.60
2018-11-29T05:47:21.651Z,0.60
2018-11-29T05:52:26.272Z,0.60
2018-11-29T05:57:31.344Z,0.70
2018-11-29T06:02:37.960Z,0.70
2018-11-29T06:07:42.494Z,0.60
2018-11-29T06:12:47.527Z,0.60
2018-11-29T06:17:52.640Z,0.60
2018-11-29T06:22:57.759Z,0.70
2018-11-29T06:28:02.220Z,0.70
2018-11-29T06:33:08.009Z,0.70
2018-11-29T06:38:13.283Z,0.70
2018-11-29T06:43:36.401Z,0.60
2018-11-29T06:48:40.952Z,0.60
2018-11-29T06:53:50.670Z,0.70
2018-11-29T06:58:56.301Z,0.70
2018-11-29T07:04:01.068Z,0.80
2018-11-29T07:09:08.047Z,0.90
2018-11-29T07:14:12.518Z,1.00
2018-11-29T07:19:17.275Z,1.00
2018-11-29T07:24:22.008Z,1.10
2018-11-29T07:29:26.620Z,1.20
2018-11-29T07:34:31.334Z,1.10
2018-11-29T07:39:35.925Z,1.10
2018-11-29T07:44:40.476Z,1.20
2018-11-29T07:49:44.987Z,1.30
2018-11-29T07:54:50.985Z,1.40
2018-11-29T07:59:55.452Z,1.60
2018-11-29T08:05:00.009Z,1.90
2018-11-29T08:10:05.302Z,2.20
2018-11-29T08:15:11.236Z,2.60
2018-11-29T08:20:17.810Z,2.90
2018-11-29T08:25:22.365Z,3.20
2018-11-29T08:30:26.872Z,3.50
2018-11-29T08:35:31.571Z,3.80
2018-11-29T08:40:37.450Z,4.00
2018-11-29T08:45:42.666Z,4.00
2018-11-29T08:50:47.402Z,4.00
2018-11-29T08:55:53.176Z,4.10
2018-11-29T09:00:57.828Z,4.30
2018-11-29T09:06:02.351Z,4.50
2018-11-29T09:11:07.350Z,4.50
2018-11-29T09:16:12.651Z,4.70
2018-11-29T09:21:17.302Z,5.00
2018-11-29T09:26:21.736Z,5.10
2018-11-29T09:31:26.238Z,5.30
2018-11-29T09:36:34.167Z,5.50
2018-11-29T09:41:38.624Z,5.60
2018-11-29T09:46:43.102Z,6.10
2018-11-29T09:51:47.653Z,6.60
2018-11-29T09:56:52.279Z,7.20
2018-11-29T10:01:56.761Z,7.50
2018-11-29T10:07:01.383Z,8.00
2018-11-29T10:12:06.174Z,8.10
2018-11-29T10:17:10.746Z,8.30
2018-11-29T10:22:15.701Z,7.70
2018-11-29T10:27:20.903Z,7.00
2018-11-29T10:32:26.319Z,6.80
2018-11-29T10:37:30.830Z,7.50
2018-11-29T10:42:36.794Z,8.10
2018-11-29T10:47:42.283Z,8.10
2018-11-29T10:52:46.702Z,8.30
2018-11-29T10:57:51.518Z,9.00
2018-11-29T11:03:03.114Z,8.70
2018-11-29T11:08:08.949Z,7.40
2018-11-29T11:13:13.464Z,7.30
2018-11-29T11:18:18.573Z,7.20
2018-11-29T11:23:24.583Z,7.30
2018-11-29T11:28:29.481Z,7.50
2018-11-29T11:33:34.443Z,7.10
2018-11-29T11:38:40.685Z,7.20
2018-11-29T11:43:45.304Z,7.20
2018-11-29T11:48:51.921Z,7.30
2018-11-29T11:53:56.904Z,7.60
2018-11-29T11:59:01.549Z,7.40
2018-11-29T12:04:07.325Z,7.00
2018-11-29T12:09:13.631Z,7.20
2018-11-29T12:14:18.716Z,7.30
2018-11-29T12:19:23.423Z,7.50
2018-11-29T12:24:29.249Z,7.50
2018-11-29T12:29:33.949Z,7.60
2018-11-29T12:34:38.315Z,7.80
2018-11-29T12:39:43.526Z,7.50
2018-11-29T12:44:48.049Z,7.00
2018-11-29T12:49:52.682Z,7.00
2018-11-29T12:54:57.291Z,7.00
2018-11-29T13:00:02.739Z,7.20
2018-11-29T13:05:08.718Z,7.30
2018-11-29T13:10:14.523Z,7.30
2018-11-29T13:15:21.558Z,7.10
2018-11-29T13:20:25.918Z,6.80
2018-11-29T13:25:30.824Z,6.40
2018-11-29T13:30:58.711Z,6.30
2018-11-29T13:36:03.592Z,6.30
2018-11-29T13:41:09.232Z,6.10
2018-11-29T13:46:20.636Z,6.00
2018-11-29T13:51:26.234Z,5.90
2018-11-29T13:56:31.404Z,5.80
2018-11-29T14:01:35.936Z,5.70
2018-11-29T14:06:41.017Z,5.80
2018-11-29T14:11:45.433Z,5.70
2018-11-29T14:16:50.017Z,5.80
2018-11-29T14:21:54.699Z,5.80
2018-11-29T14:26:59.444Z,5.80
2018-11-29T14:32:04.206Z,5.60
2018-11-29T14:37:08.996Z,5.50
2018-11-29T14:42:14.107Z,5.50
2018-11-29T14:47:18.465Z,5.50
2018-11-29T14:52:23.807Z,5.50
2018-11-29T14:57:28.599Z,5.40
2018-11-29T15:02:33.317Z,5.30
2018-11-29T15:07:37.775Z,5.20
2018-11-29T15:12:43.613Z,5.10
2018-11-29T15:17:51.006Z,5.10
2018-11-29T15:22:56.030Z,5.00
2018-11-29T15:28:00.598Z,5.00
2018-11-29T15:33:05.252Z,5.00
2018-11-29T15:38:11.686Z,5.00
2018-11-29T15:43:16.434Z,5.00
2018-11-29T15:48:20.991Z,5.00
2018-11-29T15:53:25.647Z,4.90
2018-11-29T15:58:30.774Z,5.00
2018-11-29T16:03:35.287Z,4.90
2018-11-29T16:08:39.830Z,4.90
2018-11-29T16:13:45.983Z,5.00
2018-11-29T16:18:50.652Z,4.90
2018-11-29T16:23:55.903Z,4.90
2018-11-29T16:29:00.399Z,4.90
2018-11-29T16:34:06.231Z,4.90
2018-11-29T16:39:11.248Z,4.90
2018-11-29T16:44:16.438Z,4.90
2018-11-29T16:49:21.984Z,4.90
2018-11-29T16:54:27.477Z,4.80
2018-11-29T16:59:36.234Z,4.80
2018-11-29T17:04:41.643Z,4.80
2018-11-29T17:09:46.537Z,4.80
2018-11-29T17:14:52.179Z,4.70
2018-11-29T17:20:00.048Z,4.70
2018-11-29T17:25:05.585Z,4.60
2018-11-29T17:30:14.666Z,4.50
2018-11-29T17:35:19.036Z,4.50
2018-11-29T17:40:24.441Z,4.30
2018-11-29T17:45:31.330Z,4.30
2018-11-29T17:50:41.873Z,4.10
2018-11-29T17:55:49.583Z,3.90
2018-11-29T18:00:55.918Z,3.80
2018-11-29T18:06:03.077Z,3.80
2018-11-29T18:11:10.260Z,3.80
2018-11-29T18:16:17.456Z,3.70
2018-11-29T18:21:24.306Z,3.60
2018-11-29T18:26:29.363Z,3.50
2018-11-29T18:31:34.722Z,3.50
2018-11-29T18:36:40.503Z,3.60
2018-11-29T18:41:47.005Z,3.60
2018-11-29T18:46:51.731Z,3.60
2018-11-29T18:51:57.283Z,3.60
2018-11-29T18:57:02.076Z,3.70
2018-11-29T19:02:09.128Z,3.70
2018-11-29T19:07:14.025Z,3.60
2018-11-29T19:12:19.102Z,3.50
2018-11-29T19:17:25.181Z,3.40
2018-11-29T19:22:29.031Z,3.40
2018-11-29T19:27:34.137Z,3.40
2018-11-29T19:32:39.059Z,3.50
2018-11-29T19:37:43.950Z,3.50
2018-11-29T19:42:49.224Z,3.40
2018-11-29T19:47:54.580Z,3.40
2018-11-29T19:53:00.971Z,3.40
2018-11-29T19:58:07.211Z,3.40
2018-11-29T20:03:11.965Z,3.40
2018-11-29T20:08:16.947Z,3.40
2018-11-29T20:13:21.924Z,3.40
2018-11-29T20:18:26.571Z,3.40
2018-11-29T20:23:31.070Z,3.30
2018-11-29T20:28:36.036Z,3.30
2018-11-29T20:33:40.696Z,3.20
2018-11-29T20:38:45.451Z,3.20
2018-11-29T20:43:50.053Z,3.20
2018-11-29T20:48:54.622Z,3.10
2018-11-29T20:53:59.070Z,3.10
2018-11-29T20:59:03.603Z,3.20
2018-11-29T21:04:09.754Z,3.20
2018-11-29T21:09:14.577Z,3.30
2018-11-29T21:14:19.140Z,3.30
2018-11-29T21:19:25.059Z,3.30
2018-11-29T21:24:30.020Z,3.30
2018-11-29T21:29:34.884Z,3.40
2018-11-29T21:34:39.850Z,3.40
2018-11-29T21:39:44.814Z,3.40
2018-11-29T21:44:49.659Z,3.30
2018-11-29T21:49:54.480Z,3.40
2018-11-29T21:54:59.541Z,3.40
2018-11-29T22:00:07.293Z,3.30
2018-11-29T22:05:12.171Z,3.40
2018-11-29T22:10:17.173Z,3.40
2018-11-29T22:15:21.795Z,3.30
2018-11-29T22:20:26.863Z,3.30
2018-11-29T22:25:32.205Z,3.20
2018-11-29T22:30:36.800Z,3.20
2018-11-29T22:35:41.476Z,3.20
2018-11-29T22:40:46.758Z,3.20
2018-11-29T22:45:51.942Z,3.20
2018-11-29T22:50:56.583Z,3.20
2018-11-29T22:56:01.079Z,3.20
2018-11-29T23:01:10.450Z,3.20
2018-11-29T23:06:14.887Z,3.00
2018-11-29T23:11:19.356Z,3.00
2018-11-29T23:16:23.958Z,3.00
2018-11-29T23:21:29.262Z,2.90
2018-11-29T23:26:34.041Z,2.90
2018-11-29T23:31:38.892Z,2.70
2018-11-29T23:36:43.537Z,2.70
2018-11-29T23:41:49.105Z,2.80
2018-11-29T23:46:54.460Z,2.90
2018-11-29T23:51:58.972Z,2.80
2018-11-29T23:57:03.248Z,2.80
